sensor_id;sensor_type;location;lat;lon;timestamp;temperature;humidity
796;DHT22;381;48.770;9.188;2023-03-01T00:03:15;2.60;85.70
796;DHT22;381;48.770;9.188;2023-03-01T00:08:17;2.50;85.60
796;DHT22;381;48.770;9.188;2023-03-01T00:13:19;2.40;85.60
796;DHT22;381;48.770;9.188;2023-03-01T00:18:23;2.40;85.80
796;DHT22;381;48.770;9.188;2023-03-01T00:23:26;2.30;86.10
796;DHT22;381;48.770;9.188;2023-03-01T00:28:28;2.30;86.60
796;DHT22;381;48.770;9.188;2023-03-01T00:33:32;2.30;86.30
796;DHT22;381;48.770;9.188;2023-03-01T00:38:35;2.30;86.20
796;DHT22;381;48.770;9.188;2023-03-01T00:43:37;2.30;86.20
796;DHT22;381;48.770;9.188;2023-03-01T00:48:41;2.20;86.30
796;DHT22;381;48.770;9.188;2023-03-01T00:53:44;2.10;86.50
796;DHT22;381;48.770;9.188;2023-03-01T00:58:46;2.10;86.80
796;DHT22;381;48.770;9.188;2023-03-01T01:03:52;2.20;86.70
796;DHT22;381;48.770;9.188;2023-03-01T01:08:55;2.10;86.60
796;DHT22;381;48.770;9.188;2023-03-01T01:13:57;2.10;86.60
796;DHT22;381;48.770;9.188;2023-03-01T01:19:01;2.10;87.10
796;DHT22;381;48.770;9.188;2023-03-01T01:24:03;2.10;86.80
796;DHT22;381;48.770;9.188;2023-03-01T01:29:07;2.00;87.10
796;DHT22;381;48.770;9.188;2023-03-01T01:34:14;2.00;88.50
796;DHT22;381;48.770;9.188;2023-03-01T01:39:16;2.10;87.70
796;DHT22;381;48.770;9.188;2023-03-01T01:44:20;2.10;86.80
796;DHT22;381;48.770;9.188;2023-03-01T01:49:32;2.10;86.70
796;DHT22;381;48.770;9.188;2023-03-01T01:54:40;2.00;87.30
796;DHT22;381;48.770;9.188;2023-03-01T01:59:45;1.90;87.10
796;DHT22;381;48.770;9.188;2023-03-01T02:04:55;1.80;87.50
796;DHT22;381;48.770;9.188;2023-03-01T02:10:01;1.90;87.50
796;DHT22;381;48.770;9.188;2023-03-01T02:15:04;2.00;87.60
796;DHT22;381;48.770;9.188;2023-03-01T02:20:15;2.10;87.90
796;DHT22;381;48.770;9.188;2023-03-01T02:25:34;2.10;87.90
796;DHT22;381;48.770;9.188;2023-03-01T02:30:40;2.20;88.40
796;DHT22;381;48.770;9.188;2023-03-01T02:36:06;2.30;87.80
796;DHT22;381;48.770;9.188;2023-03-01T02:41:10;2.50;87.80
796;DHT22;381;48.770;9.188;2023-03-01T02:46:16;2.60;87.90
796;DHT22;381;48.770;9.188;2023-03-01T02:51:41;2.70;87.60
796;DHT22;381;48.770;9.188;2023-03-01T02:56:45;2.80;86.60
796;DHT22;381;48.770;9.188;2023-03-01T03:01:52;2.90;87.50
796;DHT22;381;48.770;9.188;2023-03-01T03:06:54;2.90;87.30
796;DHT22;381;48.770;9.188;2023-03-01T03:11:57;3.00;86.60
796;DHT22;381;48.770;9.188;2023-03-01T03:17:01;3.10;87.30
796;DHT22;381;48.770;9.188;2023-03-01T03:22:07;3.10;87.50
796;DHT22;381;48.770;9.188;2023-03-01T03:27:09;3.20;85.90
796;DHT22;381;48.770;9.188;2023-03-01T03:32:13;3.30;85.60
796;DHT22;381;48.770;9.188;2023-03-01T03:37:15;3.20;86.00
796;DHT22;381;48.770;9.188;2023-03-01T03:42:31;3.20;86.00
796;DHT22;381;48.770;9.188;2023-03-01T03:47:34;3.20;85.30
796;DHT22;381;48.770;9.188;2023-03-01T03:52:37;3.20;85.60
796;DHT22;381;48.770;9.188;2023-03-01T03:57:40;3.30;86.20
796;DHT22;381;48.770;9.188;2023-03-01T04:02:45;3.30;86.10
796;DHT22;381;48.770;9.188;2023-03-01T04:07:47;3.40;85.80
796;DHT22;381;48.770;9.188;2023-03-01T04:12:49;3.50;86.10
796;DHT22;381;48.770;9.188;2023-03-01T04:17:54;3.50;84.80
796;DHT22;381;48.770;9.188;2023-03-01T04:22:58;3.50;85.60
796;DHT22;381;48.770;9.188;2023-03-01T04:28:09;3.50;86.20
796;DHT22;381;48.770;9.188;2023-03-01T04:33:13;3.50;85.10
796;DHT22;381;48.770;9.188;2023-03-01T04:38:15;3.60;85.50
796;DHT22;381;48.770;9.188;2023-03-01T04:43:18;3.60;85.00
796;DHT22;381;48.770;9.188;2023-03-01T04:48:21;3.60;86.30
796;DHT22;381;48.770;9.188;2023-03-01T04:53:23;3.70;84.40
796;DHT22;381;48.770;9.188;2023-03-01T04:58:26;3.70;85.40
796;DHT22;381;48.770;9.188;2023-03-01T05:03:30;3.70;85.40
796;DHT22;381;48.770;9.188;2023-03-01T05:08:32;3.70;85.50
796;DHT22;381;48.770;9.188;2023-03-01T05:13:35;3.80;85.70
796;DHT22;381;48.770;9.188;2023-03-01T05:18:39;3.90;85.70
796;DHT22;381;48.770;9.188;2023-03-01T05:23:42;3.90;85.20
796;DHT22;381;48.770;9.188;2023-03-01T05:28:44;4.00;85.90
796;DHT22;381;48.770;9.188;2023-03-01T05:33:48;4.10;86.00
796;DHT22;381;48.770;9.188;2023-03-01T05:38:59;4.10;84.70
796;DHT22;381;48.770;9.188;2023-03-01T05:44:01;4.20;85.50
796;DHT22;381;48.770;9.188;2023-03-01T05:49:06;4.30;85.70
796;DHT22;381;48.770;9.188;2023-03-01T05:54:09;4.30;85.90
796;DHT22;381;48.770;9.188;2023-03-01T05:59:11;4.40;84.70
796;DHT22;381;48.770;9.188;2023-03-01T06:04:15;4.40;84.30
796;DHT22;381;48.770;9.188;2023-03-01T06:09:20;4.40;84.30
796;DHT22;381;48.770;9.188;2023-03-01T06:14:22;4.40;84.60
796;DHT22;381;48.770;9.188;2023-03-01T06:19:26;4.40;84.00
796;DHT22;381;48.770;9.188;2023-03-01T06:24:28;4.40;83.80
796;DHT22;381;48.770;9.188;2023-03-01T06:29:30;4.50;82.80
796;DHT22;381;48.770;9.188;2023-03-01T06:34:34;4.50;84.30
796;DHT22;381;48.770;9.188;2023-03-01T06:39:36;4.50;84.60
796;DHT22;381;48.770;9.188;2023-03-01T06:44:38;4.50;84.70
796;DHT22;381;48.770;9.188;2023-03-01T06:49:42;4.60;82.50
796;DHT22;381;48.770;9.188;2023-03-01T06:54:44;4.50;82.90
796;DHT22;381;48.770;9.188;2023-03-01T06:59:46;4.50;82.60
796;DHT22;381;48.770;9.188;2023-03-01T07:04:50;4.50;82.80
796;DHT22;381;48.770;9.188;2023-03-01T07:09:52;4.40;82.70
796;DHT22;381;48.770;9.188;2023-03-01T07:14:55;4.40;83.30
796;DHT22;381;48.770;9.188;2023-03-01T07:19:58;4.40;82.70
796;DHT22;381;48.770;9.188;2023-03-01T07:25:00;4.30;83.10
796;DHT22;381;48.770;9.188;2023-03-01T07:30:03;4.20;83.20
796;DHT22;381;48.770;9.188;2023-03-01T07:35:07;4.20;83.80
796;DHT22;381;48.770;9.188;2023-03-01T07:40:11;4.20;83.70
796;DHT22;381;48.770;9.188;2023-03-01T07:45:13;4.20;83.00
796;DHT22;381;48.770;9.188;2023-03-01T07:50:17;4.20;84.00
796;DHT22;381;48.770;9.188;2023-03-01T07:55:19;4.20;84.60
796;DHT22;381;48.770;9.188;2023-03-01T08:00:22;4.20;84.80
796;DHT22;381;48.770;9.188;2023-03-01T08:05:25;4.30;84.50
796;DHT22;381;48.770;9.188;2023-03-01T08:10:27;4.40;83.70
796;DHT22;381;48.770;9.188;2023-03-01T08:15:29;4.40;83.20
796;DHT22;381;48.770;9.188;2023-03-01T08:20:33;4.40;83.50
796;DHT22;381;48.770;9.188;2023-03-01T08:25:35;4.50;84.00
796;DHT22;381;48.770;9.188;2023-03-01T08:30:37;4.50;83.30
796;DHT22;381;48.770;9.188;2023-03-01T08:35:40;4.50;83.50
796;DHT22;381;48.770;9.188;2023-03-01T08:40:42;4.60;83.70
796;DHT22;381;48.770;9.188;2023-03-01T08:45:48;4.70;83.90
796;DHT22;381;48.770;9.188;2023-03-01T08:50:53;4.90;83.50
796;DHT22;381;48.770;9.188;2023-03-01T08:55:55;5.00;83.10
796;DHT22;381;48.770;9.188;2023-03-01T09:00:57;5.20;82.10
796;DHT22;381;48.770;9.188;2023-03-01T09:06:01;5.30;82.40
796;DHT22;381;48.770;9.188;2023-03-01T09:11:08;5.50;82.30
796;DHT22;381;48.770;9.188;2023-03-01T09:16:12;5.70;81.50
796;DHT22;381;48.770;9.188;2023-03-01T09:21:17;5.80;80.50
796;DHT22;381;48.770;9.188;2023-03-01T09:26:21;5.90;79.70
796;DHT22;381;48.770;9.188;2023-03-01T09:31:24;6.00;79.30
796;DHT22;381;48.770;9.188;2023-03-01T09:36:28;6.00;78.00
796;DHT22;381;48.770;9.188;2023-03-01T09:41:49;6.10;80.40
796;DHT22;381;48.770;9.188;2023-03-01T09:46:52;6.30;77.30
796;DHT22;381;48.770;9.188;2023-03-01T09:51:59;6.40;78.60
796;DHT22;381;48.770;9.188;2023-03-01T09:57:14;6.50;77.50
796;DHT22;381;48.770;9.188;2023-03-01T10:02:27;6.60;75.70
796;DHT22;381;48.770;9.188;2023-03-01T10:07:41;6.70;75.80
796;DHT22;381;48.770;9.188;2023-03-01T10:12:46;6.70;75.40
796;DHT22;381;48.770;9.188;2023-03-01T10:17:51;6.70;75.80
796;DHT22;381;48.770;9.188;2023-03-01T10:22:55;6.60;76.60
796;DHT22;381;48.770;9.188;2023-03-01T10:28:02;6.60;75.20
796;DHT22;381;48.770;9.188;2023-03-01T10:33:13;6.50;77.20
796;DHT22;381;48.770;9.188;2023-03-01T10:38:19;6.60;75.50
796;DHT22;381;48.770;9.188;2023-03-01T10:43:21;6.50;76.60
796;DHT22;381;48.770;9.188;2023-03-01T10:48:25;6.50;76.60
796;DHT22;381;48.770;9.188;2023-03-01T10:53:33;6.50;75.70
796;DHT22;381;48.770;9.188;2023-03-01T10:58:36;6.50;76.10
796;DHT22;381;48.770;9.188;2023-03-01T11:03:39;6.50;74.90
796;DHT22;381;48.770;9.188;2023-03-01T11:08:44;6.50;76.50
796;DHT22;381;48.770;9.188;2023-03-01T11:13:53;6.50;76.70
796;DHT22;381;48.770;9.188;2023-03-01T11:18:57;6.60;75.80
796;DHT22;381;48.770;9.188;2023-03-01T11:24:01;6.60;77.50
796;DHT22;381;48.770;9.188;2023-03-01T11:29:12;6.70;75.30
796;DHT22;381;48.770;9.188;2023-03-01T11:34:23;6.70;75.50
796;DHT22;381;48.770;9.188;2023-03-01T11:39:34;6.70;76.40
796;DHT22;381;48.770;9.188;2023-03-01T11:44:42;6.80;78.70
796;DHT22;381;48.770;9.188;2023-03-01T11:50:03;6.90;77.60
796;DHT22;381;48.770;9.188;2023-03-01T11:55:23;7.00;76.70
796;DHT22;381;48.770;9.188;2023-03-01T12:00:42;7.00;77.50
796;DHT22;381;48.770;9.188;2023-03-01T12:06:20;7.10;78.70
796;DHT22;381;48.770;9.188;2023-03-01T12:11:39;7.20;78.80
796;DHT22;381;48.770;9.188;2023-03-01T12:17:02;7.20;77.90
796;DHT22;381;48.770;9.188;2023-03-01T12:22:21;7.40;74.40
796;DHT22;381;48.770;9.188;2023-03-01T12:27:49;7.40;75.80
796;DHT22;381;48.770;9.188;2023-03-01T12:33:02;7.50;73.90
796;DHT22;381;48.770;9.188;2023-03-01T12:38:20;7.50;75.40
796;DHT22;381;48.770;9.188;2023-03-01T12:43:40;7.50;76.30
796;DHT22;381;48.770;9.188;2023-03-01T12:48:51;7.60;73.90
796;DHT22;381;48.770;9.188;2023-03-01T12:54:00;7.60;76.30
796;DHT22;381;48.770;9.188;2023-03-01T12:59:13;7.70;74.70
796;DHT22;381;48.770;9.188;2023-03-01T13:04:35;7.70;76.00
796;DHT22;381;48.770;9.188;2023-03-01T13:09:40;7.80;76.80
796;DHT22;381;48.770;9.188;2023-03-01T13:14:47;7.90;75.10
796;DHT22;381;48.770;9.188;2023-03-01T13:19:56;7.90;75.70
796;DHT22;381;48.770;9.188;2023-03-01T13:25:11;8.00;74.90
796;DHT22;381;48.770;9.188;2023-03-01T13:30:41;8.00;76.90
796;DHT22;381;48.770;9.188;2023-03-01T13:35:44;8.00;76.60
796;DHT22;381;48.770;9.188;2023-03-01T13:40:59;8.10;75.70
796;DHT22;381;48.770;9.188;2023-03-01T13:46:09;8.20;75.70
796;DHT22;381;48.770;9.188;2023-03-01T13:51:12;8.20;76.30
796;DHT22;381;48.770;9.188;2023-03-01T13:56:16;8.30;74.90
796;DHT22;381;48.770;9.188;2023-03-01T14:01:26;8.40;75.90
796;DHT22;381;48.770;9.188;2023-03-01T14:06:30;8.50;74.50
796;DHT22;381;48.770;9.188;2023-03-01T14:11:51;8.50;74.40
796;DHT22;381;48.770;9.188;2023-03-01T14:17:03;8.50;74.50
796;DHT22;381;48.770;9.188;2023-03-01T14:22:17;8.50;74.20
796;DHT22;381;48.770;9.188;2023-03-01T14:27:20;8.50;74.10
796;DHT22;381;48.770;9.188;2023-03-01T14:32:26;8.50;75.70
796;DHT22;381;48.770;9.188;2023-03-01T14:37:31;8.50;76.80
796;DHT22;381;48.770;9.188;2023-03-01T14:53:56;8.60;76.60
796;DHT22;381;48.770;9.188;2023-03-01T14:59:23;8.60;76.10
796;DHT22;381;48.770;9.188;2023-03-01T15:04:54;8.60;77.50
796;DHT22;381;48.770;9.188;2023-03-01T15:15:49;8.60;75.90
796;DHT22;381;48.770;9.188;2023-03-01T15:21:22;8.60;76.50
796;DHT22;381;48.770;9.188;2023-03-01T15:26:35;8.60;77.30
796;DHT22;381;48.770;9.188;2023-03-01T15:31:39;8.60;76.70
796;DHT22;381;48.770;9.188;2023-03-01T15:36:43;8.60;77.80
796;DHT22;381;48.770;9.188;2023-03-01T15:41:48;8.70;77.00
796;DHT22;381;48.770;9.188;2023-03-01T15:46:50;8.60;76.90
796;DHT22;381;48.770;9.188;2023-03-01T15:51:53;8.70;74.30
796;DHT22;381;48.770;9.188;2023-03-01T15:57:13;8.70;76.40
796;DHT22;381;48.770;9.188;2023-03-01T16:02:15;8.60;77.80
796;DHT22;381;48.770;9.188;2023-03-01T16:07:17;8.60;77.40
796;DHT22;381;48.770;9.188;2023-03-01T16:12:21;8.60;73.70
796;DHT22;381;48.770;9.188;2023-03-01T16:17:24;8.60;76.80
796;DHT22;381;48.770;9.188;2023-03-01T16:22:27;8.50;76.50
796;DHT22;381;48.770;9.188;2023-03-01T16:27:30;8.50;74.70
796;DHT22;381;48.770;9.188;2023-03-01T16:32:33;8.50;75.20
796;DHT22;381;48.770;9.188;2023-03-01T16:37:35;8.40;74.90
796;DHT22;381;48.770;9.188;2023-03-01T16:42:39;8.40;76.30
796;DHT22;381;48.770;9.188;2023-03-01T16:47:41;8.30;77.10
796;DHT22;381;48.770;9.188;2023-03-01T16:52:43;8.30;76.50
796;DHT22;381;48.770;9.188;2023-03-01T16:57:47;8.20;77.90
796;DHT22;381;48.770;9.188;2023-03-01T17:02:49;8.10;78.50
796;DHT22;381;48.770;9.188;2023-03-01T17:08:28;8.10;76.30
796;DHT22;381;48.770;9.188;2023-03-01T17:13:34;8.00;76.10
796;DHT22;381;48.770;9.188;2023-03-01T17:18:37;8.00;78.50
796;DHT22;381;48.770;9.188;2023-03-01T17:23:42;7.90;79.00
796;DHT22;381;48.770;9.188;2023-03-01T17:28:45;7.90;77.50
796;DHT22;381;48.770;9.188;2023-03-01T17:33:51;7.80;77.40
796;DHT22;381;48.770;9.188;2023-03-01T17:38:53;7.70;77.70
796;DHT22;381;48.770;9.188;2023-03-01T17:43:56;7.60;77.80
796;DHT22;381;48.770;9.188;2023-03-01T17:49:04;7.40;78.40
796;DHT22;381;48.770;9.188;2023-03-01T17:54:06;7.20;79.00
796;DHT22;381;48.770;9.188;2023-03-01T17:59:10;7.00;79.90
796;DHT22;381;48.770;9.188;2023-03-01T18:04:12;6.80;79.90
796;DHT22;381;48.770;9.188;2023-03-01T18:09:14;6.60;80.70
796;DHT22;381;48.770;9.188;2023-03-01T18:14:17;6.50;80.90
796;DHT22;381;48.770;9.188;2023-03-01T18:19:19;6.40;81.40
796;DHT22;381;48.770;9.188;2023-03-01T18:24:22;6.30;81.50
796;DHT22;381;48.770;9.188;2023-03-01T18:29:25;6.20;82.10
796;DHT22;381;48.770;9.188;2023-03-01T18:34:28;6.10;82.30
796;DHT22;381;48.770;9.188;2023-03-01T18:39:30;6.10;82.60
796;DHT22;381;48.770;9.188;2023-03-01T18:44:33;6.00;82.90
796;DHT22;381;48.770;9.188;2023-03-01T18:49:55;5.80;83.20
796;DHT22;381;48.770;9.188;2023-03-01T18:55:17;5.70;83.40
796;DHT22;381;48.770;9.188;2023-03-01T19:52:35;5.20;85.30
796;DHT22;381;48.770;9.188;2023-03-01T19:58:00;5.10;84.90
796;DHT22;381;48.770;9.188;2023-03-01T20:03:10;5.00;84.90
796;DHT22;381;48.770;9.188;2023-03-01T20:08:14;4.90;85.40
796;DHT22;381;48.770;9.188;2023-03-01T20:13:16;4.90;85.80
796;DHT22;381;48.770;9.188;2023-03-01T20:18:20;4.90;85.40
796;DHT22;381;48.770;9.188;2023-03-01T20:23:24;4.90;85.80
796;DHT22;381;48.770;9.188;2023-03-01T20:28:26;4.90;86.10
796;DHT22;381;48.770;9.188;2023-03-01T20:33:28;5.00;86.60
796;DHT22;381;48.770;9.188;2023-03-01T20:38:32;5.00;86.70
796;DHT22;381;48.770;9.188;2023-03-01T20:43:37;5.20;86.50
796;DHT22;381;48.770;9.188;2023-03-01T20:48:40;5.10;86.80
796;DHT22;381;48.770;9.188;2023-03-01T20:53:44;5.20;87.30
796;DHT22;381;48.770;9.188;2023-03-01T20:58:47;5.20;87.00
796;DHT22;381;48.770;9.188;2023-03-01T21:03:49;5.10;87.10
796;DHT22;381;48.770;9.188;2023-03-01T21:08:53;5.10;87.10
796;DHT22;381;48.770;9.188;2023-03-01T21:13:55;5.10;87.10
796;DHT22;381;48.770;9.188;2023-03-01T21:18:58;5.10;87.00
796;DHT22;381;48.770;9.188;2023-03-01T21:24:03;5.00;87.40
796;DHT22;381;48.770;9.188;2023-03-01T21:29:05;5.10;87.20
796;DHT22;381;48.770;9.188;2023-03-01T21:34:11;5.10;87.30
796;DHT22;381;48.770;9.188;2023-03-01T21:39:15;5.00;88.40
796;DHT22;381;48.770;9.188;2023-03-01T21:44:17;5.00;88.00
796;DHT22;381;48.770;9.188;2023-03-01T21:49:20;5.00;87.90
796;DHT22;381;48.770;9.188;2023-03-01T21:54:23;5.00;87.40
796;DHT22;381;48.770;9.188;2023-03-01T21:59:25;5.00;87.90
796;DHT22;381;48.770;9.188;2023-03-01T22:04:28;5.00;87.30
796;DHT22;381;48.770;9.188;2023-03-01T22:09:32;4.90;88.10
796;DHT22;381;48.770;9.188;2023-03-01T22:14:36;4.90;88.30
796;DHT22;381;48.770;9.188;2023-03-01T22:19:38;4.80;88.60
796;DHT22;381;48.770;9.188;2023-03-01T22:24:44;4.80;88.50
796;DHT22;381;48.770;9.188;2023-03-01T22:29:46;4.80;88.70
796;DHT22;381;48.770;9.188;2023-03-01T22:34:51;4.70;88.50
796;DHT22;381;48.770;9.188;2023-03-01T22:40:00;4.60;89.00
796;DHT22;381;48.770;9.188;2023-03-01T22:45:03;4.50;89.10
796;DHT22;381;48.770;9.188;2023-03-01T22:50:07;4.50;89.50
796;DHT22;381;48.770;9.188;2023-03-01T22:55:10;4.50;89.80
796;DHT22;381;48.770;9.188;2023-03-01T23:00:13;4.50;89.90
796;DHT22;381;48.770;9.188;2023-03-01T23:05:15;4.50;89.70
796;DHT22;381;48.770;9.188;2023-03-01T23:10:19;4.50;89.90
796;DHT22;381;48.770;9.188;2023-03-01T23:15:21;4.40;89.60
796;DHT22;381;48.770;9.188;2023-03-01T23:20:23;4.40;90.10
796;DHT22;381;48.770;9.188;2023-03-01T23:25:27;4.30;90.20
796;DHT22;381;48.770;9.188;2023-03-01T23:30:29;4.40;90.20
796;DHT22;381;48.770;9.188;2023-03-01T23:35:31;4.30;90.10
796;DHT22;381;48.770;9.188;2023-03-01T23:40:37;4.20;90.30
796;DHT22;381;48.770;9.188;2023-03-01T23:45:39;4.20;90.30
796;DHT22;381;48.770;9.188;2023-03-01T23:50:42;4.20;90.40
796;DHT22;381;48.770;9.188;2023-03-01T23:55:49;4.10;90.30
